Time;durP1;ratioP1;P1;durP2;ratioP2;P2;SDS_P1;SDS_P2;PMS_P1;PMS_P2;Temp;Humidity;BMP_temperature;BMP_pressure;BME280_temperature;BME280_humidity;BME280_pressure;Samples;Min_cycle;Max_cycle;Signal;HPM_P1;HPM_P2
2022/06/15 00:00:55;;;;;;;4.23;3.90;;;;;;;19.26;50.60;98844.97;6979685;28;20291;-78
2022/06/15 00:04:18;;;;;;;3.70;3.40;;;;;;;19.97;49.04;98843.59;6979944;28;20201;-78
2022/06/15 00:07:40;;;;;;;4.17;3.77;;;;;;;20.15;48.46;98856.88;6980311;28;20224;-79
2022/06/15 00:11:06;;;;;;;5.83;3.73;;;;;;;19.90;49.20;98846.56;7004103;28;20228;-78
2022/06/15 00:14:29;;;;;;;4.33;3.90;;;;;;;19.40;49.43;98818.03;6980436;28;20207;-78
2022/06/15 00:17:50;;;;;;;5.03;4.17;;;;;;;19.81;49.08;98841.84;6979624;28;20218;-78
2022/06/15 00:21:14;;;;;;;7.43;3.90;;;;;;;19.63;49.68;98845.81;6979895;28;20310;-79
2022/06/15 00:24:36;;;;;;;4.97;3.90;;;;;;;19.79;49.19;98854.97;6979700;28;20291;-78
2022/06/15 00:27:57;;;;;;;4.77;3.67;;;;;;;19.99;48.62;98855.13;6980054;28;20754;-78
2022/06/15 00:31:19;;;;;;;5.33;4.37;;;;;;;19.81;49.29;98845.41;6988055;28;20234;-79
2022/06/15 00:34:41;;;;;;;5.60;4.37;;;;;;;19.72;49.25;98844.25;6987715;28;20212;-78
2022/06/15 00:38:04;;;;;;;5.47;3.93;;;;;;;20.11;48.25;98853.84;6987368;28;20206;-79
2022/06/15 00:41:27;;;;;;;6.03;3.83;;;;;;;19.05;50.37;98847.72;6986729;28;20229;-79
2022/06/15 00:44:49;;;;;;;6.57;4.20;;;;;;;18.79;51.53;98832.97;6984775;28;20685;-78
2022/06/15 00:48:11;;;;;;;7.83;4.40;;;;;;;19.26;50.76;98847.69;6978235;28;20233;-78
2022/06/15 00:51:33;;;;;;;4.93;3.90;;;;;;;19.45;49.92;98854.41;6978399;28;20255;-78
2022/06/15 00:54:56;;;;;;;5.00;3.93;;;;;;;19.61;49.67;98855.38;6978690;28;20234;-78
2022/06/15 00:58:17;;;;;;;5.40;4.00;;;;;;;19.68;49.12;98851.34;6977842;28;20675;-78
2022/06/15 01:01:40;;;;;;;4.97;3.90;;;;;;;19.15;50.59;98825.94;6978236;28;20223;-78
2022/06/15 01:05:04;;;;;;;4.80;4.17;;;;;;;19.09;49.78;98811.41;6978506;28;20202;-78
2022/06/15 01:08:33;;;;;;;5.83;4.13;;;;;;;19.06;49.84;98781.06;6977916;28;20228;-78
2022/06/15 01:12:11;;;;;;;5.37;4.30;;;;;;;19.04;50.85;98822.31;6977915;28;20245;-78
2022/06/15 01:15:40;;;;;;;8.27;4.23;;;;;;;19.02;50.90;98819.00;6978124;28;20210;-78
2022/06/15 01:19:12;;;;;;;4.73;4.27;;;;;;;19.01;50.88;98822.00;6977834;28;20229;-78
2022/06/15 01:22:55;;;;;;;6.23;4.17;;;;;;;18.34;52.23;98821.50;6978131;28;20246;-79
2022/06/15 01:26:45;;;;;;;6.10;4.30;;;;;;;18.92;51.25;98818.09;6976058;28;20195;-79
2022/06/15 01:30:23;;;;;;;5.53;4.50;;;;;;;18.64;50.97;98780.09;6977367;28;20203;-78
2022/06/15 01:33:54;;;;;;;5.23;4.57;;;;;;;19.18;50.20;98803.56;6977710;28;20666;-78
2022/06/15 01:37:20;;;;;;;5.13;4.63;;;;;;;18.49;51.85;98761.66;6977368;28;20279;-78
2022/06/15 01:40:42;;;;;;;7.67;4.63;;;;;;;18.34;52.61;98799.69;6977402;28;20237;-78
2022/06/15 01:44:10;;;;;;;4.63;3.70;;;;;;;18.49;52.40;98783.50;6977456;28;20214;-78
2022/06/15 01:47:35;;;;;;;4.43;4.03;;;;;;;18.87;51.33;98788.00;6976794;28;20717;-79
2022/06/15 01:51:00;;;;;;;5.50;4.70;;;;;;;18.97;51.26;98797.09;6980376;28;20253;-78
2022/06/15 01:54:25;;;;;;;10.43;4.53;;;;;;;18.78;51.68;98795.81;6959855;28;20668;-79
2022/06/15 01:57:49;;;;;;;4.60;4.07;;;;;;;19.11;50.56;98802.97;6953845;28;20193;-79
2022/06/15 02:01:14;;;;;;;4.83;4.03;;;;;;;19.40;49.36;98796.16;6950701;28;20268;-79
2022/06/15 02:04:45;;;;;;;5.07;4.27;;;;;;;19.22;49.29;98769.22;6956331;28;20282;-79
2022/06/15 02:08:11;;;;;;;5.07;4.27;;;;;;;18.90;50.63;98785.56;6956513;28;20283;-79
2022/06/15 02:11:36;;;;;;;6.70;4.70;;;;;;;18.71;51.25;98783.44;6977229;28;20207;-79
2022/06/15 02:14:59;;;;;;;6.30;4.33;;;;;;;18.48;52.37;98781.00;6949398;28;20249;-78
2022/06/15 02:18:21;;;;;;;5.20;4.70;;;;;;;18.00;53.65;98775.47;6948476;28;20209;-79
2022/06/15 02:21:47;;;;;;;6.77;4.77;;;;;;;18.36;52.53;98778.44;6948618;28;20281;-79
2022/06/15 02:25:20;;;;;;;6.87;4.60;;;;;;;18.42;52.25;98782.03;6947553;28;20294;-79
2022/06/15 02:28:45;;;;;;;5.63;4.30;;;;;;;18.75;51.51;98787.31;6947517;28;20382;-79
2022/06/15 02:32:08;;;;;;;5.43;4.47;;;;;;;18.54;51.51;98769.06;6947636;28;20257;-79
2022/06/15 02:35:30;;;;;;;6.03;4.00;;;;;;;18.71;51.53;98797.94;6947666;28;20226;-79
2022/06/15 02:38:53;;;;;;;4.50;4.10;;;;;;;18.94;50.77;98800.38;6947248;28;20204;-79
2022/06/15 02:42:26;;;;;;;5.80;4.00;;;;;;;18.87;50.62;98799.72;6948510;28;20238;-79
2022/06/15 02:45:49;;;;;;;6.20;4.57;;;;;;;18.31;51.98;98808.41;6949565;28;20208;-78
2022/06/15 02:49:10;;;;;;;6.50;4.80;;;;;;;18.13;53.25;98796.91;6947545;28;20264;-79
2022/06/15 02:52:36;;;;;;;5.23;4.30;;;;;;;17.79;53.49;98781.72;6948925;28;20282;-78
2022/06/15 02:56:00;;;;;;;5.70;4.40;;;;;;;17.80;53.41;98802.50;6949614;28;20210;-79
2022/06/15 02:59:22;;;;;;;6.23;4.37;;;;;;;18.00;53.62;98803.59;6949172;28;20238;-79
2022/06/15 03:02:43;;;;;;;6.23;4.53;;;;;;;18.08;53.18;98803.16;6949339;28;20262;-79
2022/06/15 03:06:09;;;;;;;4.90;4.43;;;;;;;18.26;52.75;98802.00;6949455;28;20211;-79
2022/06/15 03:09:30;;;;;;;5.27;4.37;;;;;;;18.38;52.19;98800.81;6948642;28;20606;-78
2022/06/15 03:12:53;;;;;;;5.73;4.67;;;;;;;18.15;52.45;98803.78;6949249;28;20226;-79
2022/06/15 03:16:15;;;;;;;6.00;4.43;;;;;;;18.09;53.29;98804.78;6949221;28;20239;-79
2022/06/15 03:19:36;;;;;;;6.10;4.43;;;;;;;18.02;52.07;98790.53;6948651;28;20288;-79
2022/06/15 03:22:58;;;;;;;5.07;4.50;;;;;;;18.25;52.19;98787.53;6948793;28;20227;-79
2022/06/15 03:26:20;;;;;;;5.10;4.60;;;;;;;18.36;51.72;98802.16;6947689;28;20210;-79
2022/06/15 03:29:43;;;;;;;4.13;3.83;;;;;;;17.89;51.91;98743.69;6947519;28;20324;-79
2022/06/15 03:33:05;;;;;;;6.30;5.00;;;;;;;17.84;53.36;98801.72;6948697;28;20227;-79
2022/06/15 03:36:27;;;;;;;7.57;4.97;;;;;;;17.68;53.92;98785.41;6948718;28;20254;-78
2022/06/15 03:39:48;;;;;;;5.97;4.27;;;;;;;17.86;53.39;98796.84;6947910;28;20267;-78
2022/06/15 03:43:11;;;;;;;4.77;4.10;;;;;;;17.92;52.41;98740.47;6948656;28;20231;-78
2022/06/15 03:46:33;;;;;;;4.67;4.27;;;;;;;17.96;52.41;98753.34;6949122;28;20297;-79
2022/06/15 03:49:56;;;;;;;7.30;5.10;;;;;;;17.93;52.73;98761.19;6948199;28;20246;-78
2022/06/15 03:53:17;;;;;;;7.30;4.60;;;;;;;17.95;53.39;98799.97;6948662;28;20206;-78
2022/06/15 03:56:43;;;;;;;6.00;4.50;;;;;;;17.76;53.34;98779.50;6948409;28;20222;-78
2022/06/15 04:00:06;;;;;;;5.63;4.50;;;;;;;18.09;52.85;98771.22;6948053;28;21061;-78
2022/06/15 04:03:30;;;;;;;4.97;4.53;;;;;;;17.65;53.32;98753.19;6948138;28;20207;-78
2022/06/15 04:06:51;;;;;;;6.33;4.93;;;;;;;17.70;53.68;98775.88;6947724;28;20208;-79
2022/06/15 04:10:13;;;;;;;6.67;4.70;;;;;;;17.36;54.89;98792.50;6957703;28;20273;-78
2022/06/15 04:13:35;;;;;;;5.50;5.00;;;;;;;17.65;54.24;98780.44;6962653;28;20251;-78
2022/06/15 04:16:56;;;;;;;5.00;4.50;;;;;;;17.97;52.81;98763.16;6950332;28;20211;-78
2022/06/15 04:20:36;;;;;;;6.53;4.67;;;;;;;17.86;53.17;98774.22;6952422;28;20227;-78
2022/06/15 04:23:58;;;;;;;4.73;4.33;;;;;;;17.86;53.59;98787.84;6952553;28;20256;-78
2022/06/15 04:27:19;;;;;;;7.10;4.70;;;;;;;17.78;53.64;98763.72;6951213;28;20654;-78
2022/06/15 04:30:41;;;;;;;5.13;4.73;;;;;;;17.69;54.23;98765.25;6951713;28;20860;-78
2022/06/15 04:34:03;;;;;;;5.10;4.60;;;;;;;18.35;52.38;98773.22;6952535;28;20203;-78
2022/06/15 04:37:26;;;;;;;5.00;4.50;;;;;;;18.34;52.73;98787.94;6952137;28;20254;-78
2022/06/15 04:40:47;;;;;;;5.93;4.90;;;;;;;18.60;51.70;98773.50;6951131;28;20234;-78
2022/06/15 04:44:12;;;;;;;6.20;4.43;;;;;;;18.68;51.30;98775.75;6963904;28;20687;-78
2022/06/15 04:47:33;;;;;;;8.13;4.90;;;;;;;19.44;49.94;98799.97;6978873;28;20257;-78
2022/06/15 04:50:55;;;;;;;5.10;4.20;;;;;;;19.73;49.73;98790.34;6976087;28;20646;-79
2022/06/15 04:54:19;;;;;;;5.73;4.10;;;;;;;20.01;49.07;98793.56;6978286;28;20653;-78
2022/06/15 04:57:40;;;;;;;6.50;4.60;;;;;;;20.26;48.64;98801.91;6974974;28;20214;-78
2022/06/15 05:01:03;;;;;;;6.30;4.07;;;;;;;19.51;50.08;98798.69;6979632;28;20271;-78
2022/06/15 05:04:25;;;;;;;4.70;4.20;;;;;;;19.39;50.76;98811.72;6979488;28;20354;-78
2022/06/15 05:07:47;;;;;;;5.70;4.37;;;;;;;19.72;50.18;98805.97;6977747;28;20203;-79
2022/06/15 05:11:10;;;;;;;4.63;3.90;;;;;;;20.54;48.05;98814.34;6951617;28;20294;-78
2022/06/15 05:14:31;;;;;;;4.67;4.07;;;;;;;21.33;46.87;98800.00;6952537;28;20358;-79
2022/06/15 05:17:53;;;;;;;4.63;3.63;;;;;;;21.78;44.88;98795.31;6979667;28;20219;-79
2022/06/15 05:21:14;;;;;;;4.30;3.70;;;;;;;21.76;46.48;98815.91;6978238;28;20279;-78
2022/06/15 05:24:36;;;;;;;6.80;3.97;;;;;;;22.71;44.26;98821.16;6978522;28;20211;-78
2022/06/15 05:28:06;;;;;;;4.30;3.90;;;;;;;23.40;43.36;98810.81;6972121;28;20203;-78
2022/06/15 05:31:28;;;;;;;6.73;4.77;;;;;;;23.56;42.34;98815.91;6975717;28;20218;-78
2022/06/15 05:34:49;;;;;;;7.73;3.80;;;;;;;23.58;42.17;98815.59;6959481;28;20256;-80
2022/06/15 05:38:11;;;;;;;6.53;4.17;;;;;;;23.46;41.41;98798.66;6976939;28;20295;-79
2022/06/15 05:41:33;;;;;;;5.17;4.00;;;;;;;24.73;38.84;98797.84;6977574;28;20305;-79
2022/06/15 05:44:56;;;;;;;5.77;3.90;;;;;;;24.70;39.24;98784.66;6972695;28;20254;-78
2022/06/15 05:48:18;;;;;;;5.43;3.73;;;;;;;24.30;40.25;98810.78;6975440;28;20218;-78
2022/06/15 05:51:40;;;;;;;5.67;3.53;;;;;;;23.61;40.88;98796.56;6980114;28;20265;-79
2022/06/15 05:55:02;;;;;;;4.40;3.50;;;;;;;23.52;41.70;98798.31;6977633;28;20664;-78
2022/06/15 05:58:23;;;;;;;4.70;3.60;;;;;;;24.22;39.81;98766.50;6972010;28;20578;-79
2022/06/15 06:01:46;;;;;;;4.50;3.90;;;;;;;24.48;39.04;98792.66;6977215;28;20257;-79
2022/06/15 06:05:09;;;;;;;4.30;3.60;;;;;;;24.74;38.82;98788.47;6968041;28;20206;-79
2022/06/15 06:08:31;;;;;;;3.90;3.47;;;;;;;25.66;38.24;98782.09;6976528;28;20246;-79
2022/06/15 06:11:53;;;;;;;5.43;3.57;;;;;;;26.92;35.14;98787.59;6976715;28;20619;-79
2022/06/15 06:15:14;;;;;;;4.27;3.50;;;;;;;26.79;36.13;98784.84;6970964;28;20204;-79
2022/06/15 06:18:37;;;;;;;4.03;3.60;;;;;;;26.58;36.25;98753.22;6953387;28;20294;-79
2022/06/15 06:21:59;;;;;;;5.70;3.67;;;;;;;26.03;37.67;98771.75;6976561;28;20276;-78
2022/06/15 06:25:20;;;;;;;4.80;3.50;;;;;;;26.91;37.03;98774.88;6975486;28;20286;-78
2022/06/15 06:28:42;;;;;;;5.17;3.30;;;;;;;27.87;34.17;98774.19;6976719;28;20231;-78
2022/06/15 06:32:04;;;;;;;5.50;3.17;;;;;;;27.67;33.73;98744.19;6976819;28;20289;-78
2022/06/15 06:35:27;;;;;;;4.40;3.40;;;;;;;28.37;33.70;98774.78;6971595;28;20237;-78
2022/06/15 06:38:49;;;;;;;5.67;3.33;;;;;;;28.29;32.84;98773.56;6974868;28;20205;-79
2022/06/15 06:42:11;;;;;;;6.93;3.20;;;;;;;28.25;32.65;98780.88;6975781;28;20307;-79
2022/06/15 06:45:33;;;;;;;8.17;4.00;;;;;;;29.28;31.02;98771.69;6976697;28;20305;-79
2022/06/15 06:48:54;;;;;;;4.63;3.17;;;;;;;28.83;32.28;98781.41;6975611;28;20315;-79
2022/06/15 06:52:17;;;;;;;4.77;3.57;;;;;;;29.14;32.31;98782.13;6981453;28;20228;-79
2022/06/15 06:55:39;;;;;;;6.53;3.37;;;;;;;28.56;33.50;98773.38;6976164;28;20199;-79
2022/06/15 06:59:01;;;;;;;6.00;3.50;;;;;;;29.35;31.23;98760.06;6949705;28;20301;-79
2022/06/15 07:02:22;;;;;;;3.70;3.20;;;;;;;29.76;31.13;98763.16;6967478;28;20221;-79
2022/06/15 07:05:44;;;;;;;4.70;3.33;;;;;;;29.15;31.65;98771.84;6983947;28;20228;-79
2022/06/15 07:09:08;;;;;;;6.13;3.10;;;;;;;28.13;33.69;98772.34;6979360;28;20242;-79
2022/06/15 07:12:29;;;;;;;4.30;3.10;;;;;;;29.07;31.66;98765.16;6972643;28;20860;-79
2022/06/15 07:15:51;;;;;;;3.97;3.30;;;;;;;30.32;30.77;98735.00;6970420;28;20215;-79
2022/06/15 07:19:12;;;;;;;4.77;3.17;;;;;;;29.73;32.67;98767.41;6958505;28;20293;-78
2022/06/15 07:22:35;;;;;;;3.43;3.13;;;;;;;30.31;30.67;98769.56;6975907;28;20314;-79
2022/06/15 07:25:58;;;;;;;3.97;3.53;;;;;;;29.78;32.22;98764.44;6975198;28;20343;-79
2022/06/15 07:29:22;;;;;;;3.77;2.90;;;;;;;31.56;28.54;98767.41;6974736;28;20210;-79
2022/06/15 07:32:44;;;;;;;4.77;3.00;;;;;;;31.80;28.77;98762.78;6974281;28;20249;-79
2022/06/15 07:36:06;;;;;;;4.13;3.10;;;;;;;30.78;29.10;98760.00;6976260;28;20291;-78
2022/06/15 07:39:28;;;;;;;3.53;2.93;;;;;;;29.27;30.93;98755.34;6976153;28;20237;-79
2022/06/15 07:42:52;;;;;;;4.30;3.30;;;;;;;30.02;29.79;98772.25;6975810;28;20242;-79
2022/06/15 07:46:15;;;;;;;3.70;2.97;;;;;;;30.01;30.26;98767.84;6975438;28;20291;-79
2022/06/15 07:53:15;;;;;;;4.77;2.70;;;;;;;32.37;24.79;98769.16;6980689;28;20233;-79
2022/06/15 07:56:38;;;;;;;2.87;2.53;;;;;;;32.62;23.25;98768.03;6981038;28;20217;-80
2022/06/15 08:00:01;;;;;;;3.17;2.60;;;;;;;33.02;24.45;98771.72;6973781;28;20204;-81
2022/06/15 08:03:23;;;;;;;4.33;2.60;;;;;;;32.40;24.52;98760.09;6968464;28;20980;-80
2022/06/15 08:06:46;;;;;;;4.67;2.60;;;;;;;31.66;25.02;98778.94;6982058;28;20231;-80
2022/06/15 08:10:08;;;;;;;3.37;2.87;;;;;;;32.03;26.14;98761.22;6981188;28;20368;-79
2022/06/15 08:13:30;;;;;;;5.17;3.30;;;;;;;31.56;25.74;98771.03;6981783;28;20268;-79
2022/06/15 08:16:53;;;;;;;3.37;2.50;;;;;;;31.20;26.20;98773.63;6982486;28;20219;-80
2022/06/15 08:20:17;;;;;;;3.03;2.77;;;;;;;31.00;25.30;98768.84;6981237;28;20230;-80
2022/06/15 08:23:41;;;;;;;4.23;2.57;;;;;;;32.72;24.36;98766.75;6981419;28;20218;-80
2022/06/15 08:27:04;;;;;;;4.33;2.80;;;;;;;31.65;25.89;98757.81;6974868;28;20581;-80
2022/06/15 08:30:27;;;;;;;2.97;2.50;;;;;;;32.97;24.29;98749.59;6979518;28;20231;-80
2022/06/15 08:33:50;;;;;;;3.80;3.10;;;;;;;31.20;26.90;98770.03;6980878;28;20209;-80
2022/06/15 08:37:13;;;;;;;4.17;2.70;;;;;;;32.28;26.46;98757.31;6972020;28;20211;-80
2022/06/15 08:40:38;;;;;;;4.70;2.97;;;;;;;30.89;27.35;98772.38;6962708;28;20222;-80
2022/06/15 08:44:10;;;;;;;3.90;2.90;;;;;;;32.73;26.45;98769.16;6973933;28;20209;-80
2022/06/15 08:47:46;;;;;;;4.83;3.20;;;;;;;33.92;23.94;98767.25;6980782;28;20993;-80
2022/06/15 08:51:15;;;;;;;3.73;2.73;;;;;;;34.76;23.69;98763.88;6979244;28;20230;-78
2022/06/15 08:54:40;;;;;;;4.40;3.27;;;;;;;34.66;23.59;98747.56;6980513;28;20213;-78
2022/06/15 08:58:06;;;;;;;11.60;8.73;;;;;;;34.07;24.42;98758.03;6978896;28;20215;-78
2022/06/15 09:01:33;;;;;;;4.13;2.80;;;;;;;33.78;25.10;98754.84;6962116;28;20219;-79
2022/06/15 09:04:59;;;;;;;2.80;2.57;;;;;;;34.31;23.70;98774.69;6950788;28;20273;-80
2022/06/15 09:08:43;;;;;;;3.83;3.00;;;;;;;33.72;24.06;98778.63;6949812;28;20226;-79
2022/06/15 09:16:00;;;;;;;4.90;2.90;;;;;;;34.31;23.45;98773.91;6967751;28;20222;-79
2022/06/15 09:19:26;;;;;;;3.77;2.60;;;;;;;34.39;22.95;98759.72;6962969;28;20222;-79
2022/06/15 09:22:51;;;;;;;3.33;2.83;;;;;;;33.91;23.94;98779.59;6950298;28;20250;-79
2022/06/15 09:26:22;;;;;;;3.53;2.67;;;;;;;34.40;22.12;98769.75;6947772;28;20191;-79
2022/06/15 09:29:49;;;;;;;4.93;3.23;;;;;;;35.09;22.62;98763.41;6949478;28;20211;-79
2022/06/15 09:33:16;;;;;;;5.50;2.80;;;;;;;35.45;22.67;98769.47;6977040;28;20219;-79
2022/06/15 09:36:45;;;;;;;4.47;2.93;;;;;;;35.77;21.94;98775.75;6969968;28;20214;-79
2022/06/15 09:40:08;;;;;;;3.73;2.80;;;;;;;35.69;21.53;98766.38;6949129;28;20190;-79
2022/06/15 09:43:41;;;;;;;4.23;2.67;;;;;;;35.88;21.39;98771.16;6965821;28;20249;-80
2022/06/15 09:47:09;;;;;;;4.03;2.70;;;;;;;35.30;21.95;98775.13;6983552;28;20209;-80
2022/06/15 09:50:36;;;;;;;8.83;3.17;;;;;;;34.59;22.51;98764.22;6974259;28;20254;-79
2022/06/15 09:54:01;;;;;;;4.10;2.70;;;;;;;34.96;22.31;98759.13;6969468;28;20226;-79
2022/06/15 09:57:24;;;;;;;3.77;2.70;;;;;;;35.15;22.39;98759.16;6975354;28;20191;-80
2022/06/15 10:00:48;;;;;;;5.40;2.80;;;;;;;35.71;21.21;98754.78;6975696;28;20225;-79
2022/06/15 10:04:15;;;;;;;5.07;2.83;;;;;;;35.10;22.50;98760.25;6963587;28;20207;-79
2022/06/15 10:07:39;;;;;;;6.53;2.87;;;;;;;35.20;21.65;98767.28;6965575;28;20238;-80
2022/06/15 10:11:05;;;;;;;5.53;2.87;;;;;;;35.35;21.32;98753.22;6947993;28;20597;-80
2022/06/15 10:14:29;;;;;;;3.03;2.60;;;;;;;35.21;22.22;98766.91;6947286;28;20189;-79
2022/06/15 10:17:55;;;;;;;2.93;2.40;;;;;;;35.28;21.81;98772.72;6962493;28;20226;-76
2022/06/15 10:21:20;;;;;;;7.60;3.03;;;;;;;35.44;20.74;98761.41;6976061;28;20222;-78
2022/06/15 10:24:43;;;;;;;8.77;5.87;;;;;;;36.60;19.53;98742.00;6975649;28;20702;-78
2022/06/15 10:28:09;;;;;;;5.97;2.83;;;;;;;36.77;20.31;98744.28;6971428;28;20198;-77
2022/06/15 10:31:32;;;;;;;4.37;2.87;;;;;;;35.98;20.34;98753.72;6971928;28;20261;-77
2022/06/15 10:35:05;;;;;;;6.10;2.43;;;;;;;34.95;21.29;98747.09;6975047;28;20306;-77
2022/06/15 10:38:27;;;;;;;4.43;2.40;;;;;;;36.12;19.14;98754.78;6974422;28;20201;-78
2022/06/15 10:41:49;;;;;;;5.10;2.40;;;;;;;35.67;19.73;98746.25;6974713;28;20250;-77
2022/06/15 10:45:21;;;;;;;4.50;2.70;;;;;;;36.35;18.84;98755.63;6970311;28;20252;-79
2022/06/15 10:48:45;;;;;;;2.80;2.30;;;;;;;36.79;19.53;98739.09;6973454;28;20187;-76
2022/06/15 10:52:18;;;;;;;3.03;2.60;;;;;;;37.31;18.09;98739.88;6975413;28;20241;-79
2022/06/15 11:03:18;;;;;;;3.37;2.50;;;;;;;33.94;21.04;98738.88;6944919;28;20223;-78
2022/06/15 11:06:43;;;;;;;4.43;2.40;;;;;;;34.90;20.06;98735.38;6946436;28;20693;-78
2022/06/15 11:10:14;;;;;;;2.60;2.40;;;;;;;36.66;19.14;98721.63;6946276;28;20254;-79
2022/06/15 11:13:37;;;;;;;2.87;2.37;;;;;;;36.38;18.88;98723.16;6946655;28;20213;-79
2022/06/15 11:21:07;;;;;;;5.27;2.80;;;;;;;36.66;18.29;98724.44;6960744;28;20636;-78
2022/06/15 11:24:35;;;;;;;3.63;2.53;;;;;;;36.55;18.90;98723.44;6967102;28;20229;-78
2022/06/15 11:28:02;;;;;;;3.77;2.30;;;;;;;37.24;17.97;98714.47;6978547;28;20271;-79
2022/06/15 11:31:27;;;;;;;3.03;2.30;;;;;;;35.15;19.59;98725.50;6979561;28;20253;-78
2022/06/15 11:34:55;;;;;;;6.20;2.47;;;;;;;35.62;19.85;98687.66;6980265;28;20210;-79
2022/06/15 11:38:33;;;;;;;2.73;2.10;;;;;;;37.30;18.58;98715.75;6978132;28;20322;-78
2022/06/15 11:41:57;;;;;;;4.17;2.57;;;;;;;36.60;19.07;98708.28;6979849;28;20271;-78
2022/06/15 11:45:24;;;;;;;3.23;2.33;;;;;;;35.31;19.73;98710.25;6979734;28;20710;-78
2022/06/15 11:49:03;;;;;;;3.43;2.17;;;;;;;36.18;18.87;98707.56;6968504;28;20206;-78
2022/06/15 11:52:39;;;;;;;3.20;2.33;;;;;;;36.34;18.45;98709.06;6968268;28;20305;-78
2022/06/15 11:56:06;;;;;;;3.67;2.40;;;;;;;35.35;19.66;98704.72;6962214;28;20215;-79
2022/06/15 11:59:37;;;;;;;4.50;2.53;;;;;;;36.30;18.23;98696.97;6975128;28;20285;-78
2022/06/15 12:03:31;;;;;;;2.60;2.20;;;;;;;35.92;18.56;98707.47;6980641;28;20739;-78
2022/06/15 12:07:00;;;;;;;8.33;2.43;;;;;;;34.89;19.67;98706.53;6981667;28;20195;-79
2022/06/15 12:10:33;;;;;;;3.73;2.40;;;;;;;35.46;19.51;98691.72;6968721;28;20232;-78
2022/06/15 12:13:59;;;;;;;3.83;2.40;;;;;;;35.57;18.36;98687.97;6951435;28;20685;-78
2022/06/15 12:17:31;;;;;;;3.50;2.07;;;;;;;36.88;17.58;98695.47;6954493;28;20247;-79
2022/06/15 12:21:00;;;;;;;3.93;2.50;;;;;;;35.56;18.45;98699.56;6952517;28;20230;-79
2022/06/15 12:24:24;;;;;;;4.37;2.50;;;;;;;34.80;18.70;98682.69;6952967;28;20207;-79
2022/06/15 12:27:52;;;;;;;3.30;2.23;;;;;;;36.21;17.07;98695.59;6950687;28;20609;-80
2022/06/15 12:31:21;;;;;;;3.10;2.00;;;;;;;37.20;16.85;98705.16;6951991;28;20250;-79
2022/06/15 12:34:47;;;;;;;2.13;1.77;;;;;;;36.35;17.46;98701.44;6951109;28;20206;-80
2022/06/15 12:38:17;;;;;;;3.73;2.20;;;;;;;35.39;17.59;98697.22;6949185;28;20659;-79
2022/06/15 12:45:23;;;;;;;3.80;2.40;;;;;;;36.43;17.78;98698.38;6955116;28;20218;-80
2022/06/15 12:48:54;;;;;;;3.87;2.30;;;;;;;36.60;17.42;98697.03;6951329;28;20207;-79
2022/06/15 12:52:21;;;;;;;3.53;2.20;;;;;;;36.70;17.29;98673.91;6952554;28;20262;-80
2022/06/15 12:55:49;;;;;;;2.20;2.00;;;;;;;37.86;16.11;98695.94;6952830;28;20265;-80
2022/06/15 12:59:21;;;;;;;4.07;2.20;;;;;;;37.72;15.70;98692.97;6964048;28;20251;-79
2022/06/15 13:02:47;;;;;;;2.47;1.90;;;;;;;38.10;15.21;98690.56;6976710;28;20234;-81
2022/06/15 13:06:24;;;;;;;3.03;2.10;;;;;;;37.76;15.63;98676.91;6953067;28;20199;-80
2022/06/15 13:10:21;;;;;;;3.50;1.90;;;;;;;37.60;15.75;98698.88;6958162;28;20253;-81
2022/06/15 13:13:48;;;;;;;2.63;1.90;;;;;;;38.03;15.15;98690.47;6952892;28;20793;-81
2022/06/15 13:17:12;;;;;;;2.83;2.10;;;;;;;37.10;15.86;98694.63;6952618;28;20729;-81
2022/06/15 13:20:34;;;;;;;1.90;1.70;;;;;;;36.55;14.58;98683.31;6952423;28;20370;-80
2022/06/15 13:24:02;;;;;;;2.33;2.13;;;;;;;35.30;15.31;98675.00;6952421;28;20293;-81
2022/06/15 13:27:27;;;;;;;5.53;1.60;;;;;;;36.13;14.54;98677.78;6951396;28;20298;-81
2022/06/15 13:30:58;;;;;;;4.70;2.40;;;;;;;35.42;16.24;98668.44;6952176;28;20234;-80
2022/06/15 13:34:44;;;;;;;3.40;2.10;;;;;;;36.31;15.93;98656.44;6953427;28;20195;-81
2022/06/15 13:38:16;;;;;;;2.83;2.20;;;;;;;36.44;16.04;98654.25;6953607;28;20242;-81
2022/06/15 13:41:37;;;;;;;3.40;1.70;;;;;;;37.06;15.40;98668.41;6956102;28;20222;-81
2022/06/15 13:45:02;;;;;;;2.47;2.20;;;;;;;36.98;15.54;98637.78;6959943;28;20282;-81
2022/06/15 13:48:31;;;;;;;2.63;1.70;;;;;;;37.42;15.18;98667.69;6954476;28;20207;-80
2022/06/15 13:51:55;;;;;;;2.50;2.07;;;;;;;36.99;15.80;98661.88;6952021;28;20240;-81
2022/06/15 13:55:49;;;;;;;2.63;2.40;;;;;;;37.31;15.86;98682.81;6951490;28;20298;-80
2022/06/15 13:59:16;;;;;;;2.37;1.80;;;;;;;37.95;15.17;98673.91;6950111;28;20211;-80
2022/06/15 14:02:49;;;;;;;3.23;2.10;;;;;;;37.10;16.38;98674.94;6950270;28;20222;-80
2022/06/15 14:06:26;;;;;;;4.37;2.10;;;;;;;37.24;15.19;98671.47;6950194;28;20203;-79
2022/06/15 14:09:56;;;;;;;2.10;1.90;;;;;;;36.08;16.63;98644.41;6949640;28;20183;-80
2022/06/15 14:13:45;;;;;;;2.33;2.13;;;;;;;36.72;16.93;98663.13;6950370;28;20288;-79
2022/06/15 14:17:30;;;;;;;3.00;2.20;;;;;;;35.38;17.61;98654.31;6950092;28;20744;-80
2022/06/15 14:20:52;;;;;;;2.20;2.03;;;;;;;36.38;17.69;98658.56;6973408;28;20303;-79
2022/06/15 14:24:20;;;;;;;3.57;2.20;;;;;;;36.85;17.35;98654.06;6977657;28;20225;-79
2022/06/15 14:27:42;;;;;;;3.63;2.20;;;;;;;36.71;17.70;98656.69;6976674;28;20266;-80
2022/06/15 14:31:08;;;;;;;3.53;2.23;;;;;;;36.05;18.23;98655.56;6977783;28;20233;-80
2022/06/15 14:34:32;;;;;;;4.20;2.33;;;;;;;35.52;17.49;98653.78;6976724;28;20194;-80
2022/06/15 14:37:56;;;;;;;2.30;2.10;;;;;;;34.87;18.39;98654.81;6977605;28;20299;-80
2022/06/15 14:41:20;;;;;;;4.67;2.57;;;;;;;35.39;18.65;98661.56;6977334;28;20218;-79
2022/06/15 14:44:42;;;;;;;3.43;2.10;;;;;;;36.61;18.01;98654.50;6977059;28;20348;-80
2022/06/15 14:48:06;;;;;;;3.97;2.27;;;;;;;36.55;17.46;98655.22;6976588;28;20663;-80
2022/06/15 14:51:29;;;;;;;3.43;2.43;;;;;;;35.72;17.83;98649.78;6976869;28;20368;-80
2022/06/15 14:54:54;;;;;;;2.57;2.20;;;;;;;36.76;17.81;98647.09;6976099;28;20207;-80
2022/06/15 14:58:19;;;;;;;2.70;2.10;;;;;;;37.21;16.89;98644.94;6975407;28;20678;-80
2022/06/15 15:01:56;;;;;;;3.40;2.37;;;;;;;35.34;18.55;98622.59;6975392;28;20231;-80
2022/06/15 15:05:23;;;;;;;5.73;2.43;;;;;;;36.29;18.18;98632.72;6956035;28;20203;-80
2022/06/15 15:08:46;;;;;;;4.93;2.00;;;;;;;36.58;18.03;98627.16;6949205;28;20192;-80
2022/06/15 15:12:09;;;;;;;2.23;2.03;;;;;;;35.07;19.16;98620.03;6949135;28;20306;-80
2022/06/15 15:15:40;;;;;;;2.73;2.27;;;;;;;35.69;18.24;98620.47;6948723;28;20203;-80
2022/06/15 15:19:05;;;;;;;3.60;2.40;;;;;;;36.06;19.11;98624.31;6949371;28;20648;-80
2022/06/15 15:22:27;;;;;;;2.63;2.27;;;;;;;35.21;19.45;98629.53;6960911;28;20260;-79
2022/06/15 15:25:50;;;;;;;4.87;2.40;;;;;;;35.42;19.77;98615.16;6974672;28;20295;-81
2022/06/15 15:40:45;;;;;;;5.40;2.47;;;;;;;35.95;18.75;98600.88;6963513;28;20218;-79
2022/06/15 15:44:06;;;;;;;2.77;2.57;;;;;;;36.37;18.60;98621.22;6976491;28;20210;-80
2022/06/15 15:47:28;;;;;;;2.53;2.33;;;;;;;36.42;18.53;98618.09;6976885;28;20210;-80
2022/06/15 15:50:52;;;;;;;3.50;2.70;;;;;;;36.73;18.07;98612.13;6975854;28;20283;-80
2022/06/15 15:54:14;;;;;;;4.87;2.67;;;;;;;35.88;19.07;98609.19;6976474;28;20218;-80
2022/06/15 15:57:36;;;;;;;3.03;2.30;;;;;;;35.80;19.54;98613.06;6975699;28;20205;-81
2022/06/15 16:00:59;;;;;;;2.70;2.30;;;;;;;35.42;19.62;98593.50;6975775;28;20271;-80
2022/06/15 16:04:22;;;;;;;9.63;2.90;;;;;;;36.30;19.28;98609.06;6976714;28;20256;-79
2022/06/15 16:07:46;;;;;;;4.90;2.83;;;;;;;36.10;19.17;98604.72;6980418;28;20234;-80
2022/06/15 16:11:08;;;;;;;2.57;2.37;;;;;;;35.50;20.06;98606.47;6977567;28;20317;-80
2022/06/15 16:14:30;;;;;;;4.40;2.50;;;;;;;35.74;20.63;98608.97;6980238;28;20230;-80
2022/06/15 16:17:52;;;;;;;3.33;2.60;;;;;;;35.83;20.39;98609.50;6979552;28;20241;-79
2022/06/15 16:21:14;;;;;;;5.13;2.70;;;;;;;36.21;19.86;98602.94;6980263;28;20222;-80
2022/06/15 16:24:38;;;;;;;2.83;2.53;;;;;;;35.57;20.41;98601.00;6979782;28;20208;-80
2022/06/15 16:28:01;;;;;;;3.67;2.80;;;;;;;35.93;19.88;98602.44;6979631;28;20214;-80
2022/06/15 16:31:22;;;;;;;4.10;2.33;;;;;;;36.30;20.24;98611.88;6978839;28;20229;-80
2022/06/15 16:34:44;;;;;;;6.47;3.00;;;;;;;36.15;19.62;98608.03;6979078;28;20315;-80
2022/06/15 16:38:07;;;;;;;4.57;2.50;;;;;;;35.26;20.39;98606.00;6978366;28;20210;-80
2022/06/15 16:41:30;;;;;;;2.90;2.70;;;;;;;34.90;21.46;98600.84;6980411;28;20226;-80